createdAt,value
2019-01-17T00:00:46.673Z,76481.25
2019-01-17T00:03:39.586Z,76491.30
2019-01-17T00:06:41.959Z,76473.21
2019-01-17T00:09:31.902Z,76483.27
2019-01-17T00:12:24.686Z,76474.22
2019-01-17T00:15:20.564Z,76468.19
2019-01-17T00:18:11.363Z,76463.16
2019-01-17T00:20:55.612Z,76464.17
2019-01-17T00:23:43.154Z,76468.19
2019-01-17T00:26:33.143Z,76471.20
2019-01-17T00:29:24.858Z,76465.17
2019-01-17T00:32:24.321Z,76470.20
2019-01-17T00:35:18.541Z,76481.25
2019-01-17T00:38:07.590Z,76484.27
2019-01-17T00:40:57.760Z,76478.23
2019-01-17T00:44:06.020Z,76473.21
2019-01-17T00:46:50.151Z,76476.23
2019-01-17T00:49:55.581Z,76480.25
2019-01-17T00:52:45.757Z,76485.27
2019-01-17T00:55:34.881Z,76483.27
2019-01-17T00:58:37.314Z,76485.27
2019-01-17T01:01:42.391Z,76489.30
2019-01-17T01:04:47.398Z,76491.30
2019-01-17T01:07:55.290Z,76482.26
2019-01-17T01:10:54.309Z,76490.30
2019-01-17T01:13:50.532Z,76501.36
2019-01-17T01:16:38.935Z,76486.28
2019-01-17T01:19:31.735Z,76482.26
2019-01-17T01:22:33.364Z,76488.29
2019-01-17T01:25:26.627Z,76482.26
2019-01-17T01:28:20.117Z,76480.25
2019-01-17T01:31:13.339Z,76483.27
2019-01-17T01:34:04.597Z,76478.23
2019-01-17T01:37:10.120Z,76484.27
2019-01-17T01:40:00.232Z,76493.31
2019-01-17T01:42:59.640Z,76488.29
2019-01-17T01:45:52.546Z,76480.25
2019-01-17T01:48:48.791Z,76472.20
2019-01-17T01:51:37.705Z,76481.25
2019-01-17T01:54:10.802Z,76492.31
2019-01-17T01:56:42.170Z,76481.25
2019-01-17T01:59:24.040Z,76484.27
2019-01-17T02:01:57.733Z,76491.30
2019-01-17T02:04:32.801Z,76494.31
2019-01-17T02:07:15.844Z,76485.27
2019-01-17T02:09:47.116Z,76495.32
2019-01-17T02:12:18.411Z,76502.36
2019-01-17T02:14:49.758Z,76502.36
2019-01-17T02:17:21.312Z,76515.42
2019-01-17T02:19:52.604Z,76517.44
2019-01-17T02:22:29.005Z,76513.41
2019-01-17T02:25:05.190Z,76511.41
2019-01-17T02:27:36.547Z,76526.48
2019-01-17T02:30:08.518Z,76514.42
2019-01-17T02:32:41.667Z,76524.47
2019-01-17T02:35:12.964Z,76538.54
2019-01-17T02:37:44.233Z,76531.50
2019-01-17T02:40:16.119Z,76530.50
2019-01-17T02:42:47.336Z,76524.47
2019-01-17T02:45:18.841Z,76536.53
2019-01-17T02:47:50.110Z,76541.55
2019-01-17T02:50:21.340Z,76550.60
2019-01-17T02:52:52.595Z,76546.58
2019-01-17T02:55:23.847Z,76541.55
2019-01-17T02:57:55.215Z,76555.63
2019-01-17T03:00:26.644Z,76559.65
2019-01-17T03:02:57.882Z,76566.69
2019-01-17T03:05:29.113Z,76566.69
2019-01-17T03:08:00.417Z,76568.70
2019-01-17T03:10:31.693Z,76573.72
2019-01-17T03:13:02.949Z,76552.61
2019-01-17T03:15:34.199Z,76545.58
2019-01-17T03:18:05.706Z,76544.58
2019-01-17T03:20:36.941Z,76538.54
2019-01-17T03:23:08.207Z,76535.52
2019-01-17T03:25:39.463Z,76543.56
2019-01-17T03:28:10.754Z,76539.55
2019-01-17T03:30:42.049Z,76532.52
2019-01-17T03:33:13.357Z,76531.50
2019-01-17T03:35:44.645Z,76537.53
2019-01-17T03:38:15.903Z,76535.52
2019-01-17T03:40:47.154Z,76526.48
2019-01-17T03:43:18.399Z,76518.44
2019-01-17T03:45:49.648Z,76526.48
2019-01-17T03:48:20.839Z,76523.47
2019-01-17T03:50:52.108Z,76522.46
2019-01-17T03:53:23.331Z,76533.52
2019-01-17T03:55:55.143Z,76530.50
2019-01-17T03:58:26.354Z,76523.47
2019-01-17T04:00:57.627Z,76548.59
2019-01-17T04:03:28.787Z,76540.55
2019-01-17T04:06:00.011Z,76546.58
2019-01-17T04:08:31.282Z,76552.61
2019-01-17T04:11:02.655Z,76546.58
2019-01-17T04:13:33.956Z,76540.55
2019-01-17T04:16:05.514Z,76544.58
2019-01-17T04:18:36.738Z,76537.53
2019-01-17T04:21:08.038Z,76552.61
2019-01-17T04:23:39.304Z,76549.59
2019-01-17T04:26:10.681Z,76552.61
2019-01-17T04:28:41.910Z,76532.52
2019-01-17T04:31:13.236Z,76537.53
2019-01-17T04:33:44.478Z,76528.49
2019-01-17T04:36:15.781Z,76520.45
2019-01-17T04:38:46.981Z,76521.45
2019-01-17T04:41:18.254Z,76519.44
2019-01-17T04:43:49.489Z,76514.42
2019-01-17T04:46:20.752Z,76501.36
2019-01-17T04:48:52.217Z,76504.37
2019-01-17T04:51:23.485Z,76508.39
2019-01-17T04:53:54.721Z,76518.44
2019-01-17T04:56:25.886Z,76502.36
2019-01-17T04:58:57.299Z,76494.31
2019-01-17T05:01:28.552Z,76500.34
2019-01-17T05:03:59.765Z,76485.27
2019-01-17T05:06:31.048Z,76495.32
2019-01-17T05:09:02.315Z,76506.38
2019-01-17T05:11:33.616Z,76514.42
2019-01-17T05:14:04.991Z,76524.47
2019-01-17T05:16:36.214Z,76521.45
2019-01-17T05:19:07.500Z,76504.37
2019-01-17T05:21:38.764Z,76505.38
2019-01-17T05:24:10.122Z,76507.38
2019-01-17T05:26:41.363Z,76493.31
2019-01-17T05:29:12.526Z,76483.27
2019-01-17T05:31:43.807Z,76486.28
2019-01-17T05:34:15.064Z,76477.23
2019-01-17T05:36:46.331Z,76480.25
2019-01-17T05:39:17.659Z,76493.31
2019-01-17T05:41:48.897Z,76487.28
2019-01-17T05:44:20.171Z,76486.28
2019-01-17T05:46:51.476Z,76481.25
2019-01-17T05:49:22.721Z,76490.30
2019-01-17T05:51:54.024Z,76482.26
2019-01-17T05:54:25.181Z,76491.30
2019-01-17T05:56:56.396Z,76481.25
2019-01-17T05:59:29.051Z,76480.25
2019-01-17T06:02:02.062Z,76488.29
2019-01-17T06:04:33.446Z,76470.20
2019-01-17T06:07:04.834Z,76460.15
2019-01-17T06:09:36.120Z,76470.20
2019-01-17T06:12:07.412Z,76464.17
2019-01-17T06:14:39.026Z,76461.16
2019-01-17T06:17:10.344Z,76466.17
2019-01-17T06:19:41.599Z,76465.17
2019-01-17T06:22:12.861Z,76453.11
2019-01-17T06:24:44.186Z,76463.16
2019-01-17T06:27:15.438Z,76457.13
2019-01-17T06:29:46.736Z,76446.08
2019-01-17T06:32:18.038Z,76455.13
2019-01-17T06:34:49.292Z,76461.16
2019-01-17T06:37:20.458Z,76462.16
2019-01-17T06:39:51.864Z,76459.14
2019-01-17T06:42:23.106Z,76456.13
2019-01-17T06:44:54.290Z,76450.09
2019-01-17T06:47:26.700Z,76468.19
2019-01-17T06:49:57.909Z,76464.17
2019-01-17T06:52:29.217Z,76467.18
2019-01-17T06:55:00.549Z,76472.20
2019-01-17T06:57:31.774Z,76474.22
2019-01-17T07:00:03.022Z,76486.28
2019-01-17T07:02:34.292Z,76488.29
2019-01-17T07:05:06.331Z,76477.23
2019-01-17T07:07:37.595Z,76478.23
2019-01-17T07:10:11.875Z,76484.27
2019-01-17T07:12:43.253Z,76479.24
2019-01-17T07:15:14.809Z,76497.33
2019-01-17T07:17:46.059Z,76493.31
2019-01-17T07:20:17.932Z,76507.38
2019-01-17T07:22:49.455Z,76501.36
2019-01-17T07:25:20.872Z,76495.32
2019-01-17T07:27:52.281Z,76486.28
2019-01-17T07:30:25.512Z,76490.30
2019-01-17T07:32:56.861Z,76477.23
2019-01-17T07:35:28.521Z,76478.23
2019-01-17T07:37:59.891Z,76476.23
2019-01-17T07:40:31.231Z,76465.17
2019-01-17T07:43:02.604Z,76470.20
2019-01-17T07:45:33.982Z,76472.20
2019-01-17T07:48:05.362Z,76473.21
2019-01-17T07:50:36.636Z,76479.24
2019-01-17T07:53:07.969Z,76472.20
2019-01-17T07:55:39.385Z,76481.25
2019-01-17T07:58:10.656Z,76488.29
2019-01-17T08:00:41.906Z,76496.33
2019-01-17T08:03:13.211Z,76485.27
2019-01-17T08:05:44.468Z,76474.22
2019-01-17T08:08:15.826Z,76465.17
2019-01-17T08:10:47.084Z,76470.20
2019-01-17T08:13:18.471Z,76478.23
2019-01-17T08:15:49.782Z,76478.23
2019-01-17T08:18:20.993Z,76480.25
2019-01-17T08:20:52.376Z,76482.26
2019-01-17T08:23:23.679Z,76491.30
2019-01-17T08:25:55.042Z,76471.20
2019-01-17T08:28:26.189Z,76467.18
2019-01-17T08:30:57.585Z,76454.12
2019-01-17T08:33:28.802Z,76435.02
2019-01-17T08:36:00.162Z,76427.98
2019-01-17T08:38:31.332Z,76416.93
2019-01-17T08:41:02.643Z,76403.86
2019-01-17T08:43:33.955Z,76392.81
2019-01-17T08:46:05.337Z,76393.81
2019-01-17T08:48:36.580Z,76399.84
2019-01-17T08:51:07.965Z,76399.84
2019-01-17T08:53:39.133Z,76371.70
2019-01-17T08:56:11.105Z,76363.66
2019-01-17T08:58:51.135Z,76366.68
2019-01-17T09:01:28.509Z,76364.67
2019-01-17T09:04:00.156Z,76362.66
2019-01-17T09:06:31.353Z,76357.63
2019-01-17T09:09:02.653Z,76335.52
2019-01-17T09:11:33.926Z,76329.49
2019-01-17T09:14:06.534Z,76322.45
2019-01-17T09:16:37.879Z,76318.44
2019-01-17T09:19:09.161Z,76329.49
2019-01-17T09:21:40.457Z,76317.43
2019-01-17T09:24:11.684Z,76323.46
2019-01-17T09:26:42.979Z,76319.44
2019-01-17T09:29:14.240Z,76304.37
2019-01-17T09:31:45.522Z,76309.39
2019-01-17T09:34:16.845Z,76311.41
2019-01-17T09:36:48.166Z,76303.36
2019-01-17T09:39:19.516Z,76295.32
2019-01-17T09:41:50.694Z,76277.23
2019-01-17T09:44:21.887Z,76256.13
2019-01-17T09:46:53.148Z,76272.20
2019-01-17T09:49:24.299Z,76276.23
2019-01-17T09:51:55.657Z,76272.20
2019-01-17T09:54:26.916Z,76276.23
2019-01-17T09:56:58.161Z,76275.22
2019-01-17T09:59:29.325Z,76270.20
2019-01-17T10:02:00.592Z,76273.21
2019-01-17T10:04:31.856Z,76272.20
2019-01-17T10:07:03.096Z,76288.28
2019-01-17T10:09:34.386Z,76305.38
2019-01-17T10:12:06.041Z,76316.42
2019-01-17T10:14:37.291Z,76345.58
2019-01-17T10:17:57.282Z,76369.70
2019-01-17T10:21:42.636Z,76409.89
2019-01-17T10:25:01.831Z,76454.12
2019-01-17T10:28:28.851Z,76507.38
2019-01-17T10:31:35.743Z,76554.63
2019-01-17T10:34:46.912Z,76550.60
2019-01-17T10:38:22.249Z,76585.78
2019-01-17T10:41:28.525Z,76604.88
2019-01-17T10:44:44.008Z,76629.00
2019-01-17T10:48:06.400Z,76637.04
2019-01-17T10:51:51.414Z,76633.02
2019-01-17T10:55:21.456Z,76619.95
2019-01-17T10:58:51.807Z,76609.91
2019-01-17T11:01:56.190Z,76599.85
2019-01-17T11:05:35.862Z,76606.89
2019-01-17T11:09:17.376Z,76592.81
2019-01-17T11:12:55.526Z,76583.77
2019-01-17T11:16:23.614Z,76573.72
2019-01-17T11:19:58.545Z,76562.66
2019-01-17T11:23:11.987Z,76560.66
2019-01-17T11:26:17.348Z,76580.75
2019-01-17T11:29:38.631Z,76583.77
2019-01-17T11:32:55.292Z,76587.79
2019-01-17T11:36:02.555Z,76590.80
2019-01-17T11:39:21.880Z,76593.82
2019-01-17T11:42:26.764Z,76566.69
2019-01-17T11:45:38.098Z,76554.63
2019-01-17T11:49:04.814Z,76552.61
2019-01-17T11:52:59.854Z,76555.63
2019-01-17T11:56:31.329Z,76571.70
2019-01-17T11:59:41.952Z,76593.82
2019-01-17T12:03:23.937Z,76584.77
2019-01-17T12:05:55.192Z,76589.80
2019-01-17T12:08:26.453Z,76589.80
2019-01-17T12:10:57.747Z,76596.84
2019-01-17T12:13:29.033Z,76590.80
2019-01-17T12:16:00.410Z,76602.87
2019-01-17T12:18:31.584Z,76594.83
2019-01-17T12:21:02.877Z,76593.82
2019-01-17T12:23:34.102Z,76592.81
2019-01-17T12:26:05.488Z,76579.75
2019-01-17T12:28:36.777Z,76554.63
2019-01-17T12:31:08.109Z,76586.78
2019-01-17T12:33:39.366Z,76579.75
2019-01-17T12:36:10.619Z,76577.73
2019-01-17T12:38:41.780Z,76584.77
2019-01-17T12:41:13.073Z,76573.72
2019-01-17T12:43:44.339Z,76574.72
2019-01-17T12:46:15.651Z,76584.77
2019-01-17T12:48:46.863Z,76611.91
2019-01-17T12:51:18.076Z,76600.86
2019-01-17T12:53:49.343Z,76607.89
2019-01-17T12:56:20.708Z,76629.00
2019-01-17T12:58:51.990Z,76625.98
2019-01-17T13:01:23.268Z,76640.05
2019-01-17T13:03:55.409Z,76638.05
2019-01-17T13:06:26.819Z,76633.02
2019-01-17T13:08:58.108Z,76650.11
2019-01-17T13:11:29.452Z,76641.06
2019-01-17T13:14:00.969Z,76657.14
2019-01-17T13:16:32.240Z,76659.16
2019-01-17T13:19:03.791Z,76653.13
2019-01-17T13:21:35.150Z,76650.11
2019-01-17T13:24:06.679Z,76645.08
2019-01-17T13:26:38.111Z,76643.07
2019-01-17T13:29:09.679Z,76654.13
2019-01-17T13:31:40.981Z,76655.13
2019-01-17T13:34:12.298Z,76671.21
2019-01-17T13:36:43.602Z,76685.28
2019-01-17T13:39:14.862Z,76687.30
2019-01-17T13:41:46.159Z,76695.34
2019-01-17T13:44:17.491Z,76699.36
2019-01-17T13:46:48.798Z,76712.42
2019-01-17T13:49:19.980Z,76729.52
2019-01-17T13:51:51.268Z,76735.54
2019-01-17T13:54:22.573Z,76741.57
2019-01-17T13:56:53.883Z,76736.55
2019-01-17T13:59:25.142Z,76730.52
2019-01-17T14:01:56.575Z,76735.54
2019-01-17T14:04:27.908Z,76719.45
2019-01-17T14:06:59.172Z,76736.55
2019-01-17T14:09:30.490Z,76749.61
2019-01-17T14:12:01.702Z,76769.72
2019-01-17T14:14:32.984Z,76753.63
2019-01-17T14:17:04.281Z,76754.64
2019-01-17T14:19:35.649Z,76751.63
2019-01-17T14:22:07.439Z,76764.69
2019-01-17T14:24:38.769Z,76764.69
2019-01-17T14:27:13.973Z,76771.73
2019-01-17T14:29:43.082Z,76789.82
2019-01-17T14:32:14.405Z,76807.91
2019-01-17T14:34:45.817Z,76819.97
2019-01-17T14:37:17.444Z,76817.96
2019-01-17T14:39:48.726Z,76803.89
2019-01-17T14:42:19.997Z,76800.88
2019-01-17T14:44:51.405Z,76783.78
2019-01-17T14:47:22.656Z,76781.78
2019-01-17T14:49:53.886Z,76798.86
2019-01-17T14:52:25.103Z,76811.94
2019-01-17T14:54:56.371Z,76797.86
2019-01-17T14:57:28.978Z,76819.97
2019-01-17T15:00:00.218Z,76836.05
2019-01-17T15:02:31.455Z,76846.11
2019-01-17T15:05:02.736Z,76858.17
2019-01-17T15:07:33.999Z,76879.28
2019-01-17T15:10:06.088Z,76887.32
2019-01-17T15:12:37.396Z,76902.40
2019-01-17T15:15:09.517Z,76915.47
2019-01-17T15:17:40.797Z,76927.53
2019-01-17T15:20:16.413Z,76932.55
2019-01-17T15:22:49.476Z,76948.64
2019-01-17T15:25:20.788Z,76966.73
2019-01-17T15:27:52.061Z,76964.72
2019-01-17T15:30:25.553Z,76980.80
2019-01-17T15:32:56.924Z,76999.90
2019-01-17T15:35:28.281Z,77002.91
2019-01-17T15:37:59.513Z,77021.01
2019-01-17T15:40:32.812Z,77035.08
2019-01-17T15:43:04.568Z,77055.19
2019-01-17T15:45:35.832Z,77043.13
2019-01-17T15:48:07.120Z,77063.23
2019-01-17T15:50:38.413Z,77081.33
2019-01-17T15:53:09.692Z,77097.41
2019-01-17T15:55:41.001Z,77099.42
2019-01-17T15:58:12.272Z,77116.50
2019-01-17T16:00:43.659Z,77110.48
2019-01-17T16:03:14.935Z,77131.59
2019-01-17T16:05:46.099Z,77153.70
2019-01-17T16:08:17.330Z,77161.74
2019-01-17T16:10:48.620Z,77148.67
2019-01-17T16:13:19.894Z,77158.73
2019-01-17T16:15:51.175Z,77180.84
2019-01-17T16:18:22.424Z,77178.83
2019-01-17T16:20:53.643Z,77206.98
2019-01-17T16:23:24.876Z,77189.89
2019-01-17T16:25:56.125Z,77188.89
2019-01-17T16:28:27.423Z,77192.91
2019-01-17T16:30:58.690Z,77187.88
2019-01-17T16:33:29.914Z,77208.98
2019-01-17T16:36:01.164Z,77205.97
2019-01-17T16:38:32.448Z,77210.00
2019-01-17T16:41:03.758Z,77201.95
2019-01-17T16:43:35.001Z,77217.03
2019-01-17T16:46:06.299Z,77214.02
2019-01-17T16:48:37.569Z,77197.94
2019-01-17T16:51:08.756Z,77199.94
2019-01-17T16:53:40.044Z,77192.91
2019-01-17T16:56:11.349Z,77197.94
2019-01-17T16:58:42.630Z,77196.92
2019-01-17T17:01:13.785Z,77196.92
2019-01-17T17:03:45.071Z,77214.02
2019-01-17T17:06:16.477Z,77225.08
2019-01-17T17:08:47.769Z,77224.07
2019-01-17T17:11:19.040Z,77241.16
2019-01-17T17:13:50.362Z,77258.25
2019-01-17T17:16:21.586Z,77248.20
2019-01-17T17:18:52.823Z,77249.20
2019-01-17T17:21:24.077Z,77253.22
2019-01-17T17:23:58.492Z,77239.15
2019-01-17T17:26:29.826Z,77239.15
2019-01-17T17:29:04.725Z,77248.20
2019-01-17T17:31:36.032Z,77226.08
2019-01-17T17:34:07.434Z,77237.14
2019-01-17T17:36:38.703Z,77233.12
2019-01-17T17:39:11.531Z,77234.13
2019-01-17T17:41:42.850Z,77237.14
2019-01-17T17:44:14.057Z,77221.05
2019-01-17T17:46:45.297Z,77240.16
2019-01-17T17:49:16.569Z,77230.09
2019-01-17T17:51:47.876Z,77231.11
2019-01-17T17:54:19.114Z,77235.13
2019-01-17T17:56:50.404Z,77232.11
2019-01-17T17:59:21.630Z,77218.04
2019-01-17T18:01:59.716Z,77225.08
2019-01-17T18:04:31.061Z,77218.04
2019-01-17T18:07:02.429Z,77218.04
2019-01-17T18:09:33.638Z,77204.97
2019-01-17T18:12:04.931Z,77215.02
2019-01-17T18:14:36.157Z,77208.98
2019-01-17T18:17:07.360Z,77204.97
2019-01-17T18:19:38.646Z,77215.02
2019-01-17T18:22:09.997Z,77227.08
2019-01-17T18:24:41.276Z,77236.13
2019-01-17T18:27:12.657Z,77240.16
2019-01-17T18:29:45.990Z,77257.24
2019-01-17T18:32:17.509Z,77276.34
2019-01-17T18:34:48.894Z,77287.41
2019-01-17T18:37:20.460Z,77290.42
2019-01-17T18:39:51.880Z,77278.36
2019-01-17T18:42:24.483Z,77287.41
2019-01-17T18:44:55.823Z,77291.42
2019-01-17T18:47:27.319Z,77297.45
2019-01-17T18:49:58.700Z,77294.44
2019-01-17T18:52:30.020Z,77301.48
2019-01-17T18:55:01.316Z,77315.55
2019-01-17T18:57:32.609Z,77305.50
2019-01-17T19:00:05.493Z,77317.56
2019-01-17T19:02:36.836Z,77333.64
2019-01-17T19:05:08.286Z,77332.64
2019-01-17T19:07:39.639Z,77332.64
2019-01-17T19:10:11.946Z,77353.75
2019-01-17T19:12:43.621Z,77366.82
2019-01-17T19:15:21.767Z,77351.74
2019-01-17T19:17:53.166Z,77363.80
2019-01-17T19:20:24.650Z,77354.76
2019-01-17T19:22:56.269Z,77373.86
2019-01-17T19:25:27.731Z,77393.97
2019-01-17T19:27:59.049Z,77422.11
2019-01-17T19:35:33.984Z,77448.25
2019-01-17T19:38:05.410Z,77469.36
2019-01-17T19:40:36.801Z,77468.36
2019-01-17T19:43:08.084Z,77489.47
2019-01-17T19:45:39.332Z,77502.55
2019-01-17T19:48:10.733Z,77526.67
2019-01-17T19:50:43.203Z,77549.80
2019-01-17T19:53:14.470Z,77565.88
2019-01-17T19:55:49.286Z,77555.83
2019-01-17T19:58:20.548Z,77539.73
2019-01-17T20:00:51.843Z,77540.74
2019-01-17T20:03:36.000Z,77526.67
2019-01-17T20:06:08.045Z,77535.72
2019-01-17T20:08:39.234Z,77518.63
2019-01-17T20:11:10.519Z,77518.63
2019-01-17T20:13:41.882Z,77542.75
2019-01-17T20:16:13.189Z,77548.79
2019-01-17T20:18:44.824Z,77560.85
2019-01-17T20:21:16.134Z,77548.79
2019-01-17T20:23:47.506Z,77540.74
2019-01-17T20:26:18.852Z,77543.77
2019-01-17T20:28:50.084Z,77547.78
2019-01-17T20:31:21.336Z,77574.92
2019-01-17T20:33:52.724Z,77598.05
2019-01-17T20:36:24.051Z,77609.11
2019-01-17T20:38:55.395Z,77614.14
2019-01-17T20:41:26.694Z,77626.20
2019-01-17T20:43:58.042Z,77634.25
2019-01-17T20:46:30.884Z,77630.22
2019-01-17T20:49:02.281Z,77631.23
2019-01-17T20:51:33.610Z,77644.30
2019-01-17T20:54:04.944Z,77668.43
2019-01-17T20:56:36.262Z,77669.44
2019-01-17T20:59:07.654Z,77681.50
2019-01-17T21:02:05.931Z,77688.53
2019-01-17T21:04:37.197Z,77718.70
2019-01-17T21:07:08.720Z,77690.55
2019-01-17T21:09:40.089Z,77717.69
2019-01-17T21:12:11.404Z,77700.60
2019-01-17T21:14:42.754Z,77711.66
2019-01-17T21:17:14.121Z,77715.69
2019-01-17T21:19:45.486Z,77721.72
2019-01-17T21:22:21.444Z,77745.84
2019-01-17T21:24:52.751Z,77755.90
2019-01-17T21:27:30.698Z,77761.93
2019-01-17T21:30:02.120Z,77764.95
2019-01-17T21:32:33.833Z,77766.96
2019-01-17T21:35:07.925Z,77765.95
2019-01-17T21:37:39.539Z,77786.06
2019-01-17T21:40:14.428Z,77802.15
2019-01-17T21:42:45.758Z,77803.16
2019-01-17T21:45:19.152Z,77806.17
2019-01-17T21:47:50.489Z,77800.14
2019-01-17T21:50:26.227Z,77807.17
2019-01-17T21:52:57.454Z,77803.16
2019-01-17T21:55:28.811Z,77782.04
2019-01-17T21:58:00.104Z,77782.04
2019-01-17T22:00:31.549Z,77783.05
2019-01-17T22:03:02.802Z,77797.13
2019-01-17T22:05:34.036Z,77784.05
2019-01-17T22:08:05.416Z,77787.06
2019-01-17T22:10:36.743Z,77815.22
2019-01-17T22:13:07.990Z,77827.28
2019-01-17T22:15:39.259Z,77814.22
2019-01-17T22:18:10.507Z,77833.32
2019-01-17T22:20:41.775Z,77853.42
2019-01-17T22:23:14.052Z,77875.55
2019-01-17T22:25:45.356Z,77876.55
2019-01-17T22:28:16.601Z,77872.53
2019-01-17T22:30:48.234Z,77861.47
2019-01-17T22:33:19.509Z,77858.45
2019-01-17T22:35:50.661Z,77873.53
2019-01-17T22:38:22.101Z,77875.55
2019-01-17T22:40:53.490Z,77889.63
2019-01-17T22:43:26.461Z,77912.75
2019-01-17T22:45:57.838Z,77910.73
2019-01-17T22:48:29.046Z,77915.77
2019-01-17T22:51:00.707Z,77908.73
2019-01-17T22:53:31.979Z,77911.75
2019-01-17T22:56:03.217Z,77922.80
2019-01-17T22:58:35.890Z,77908.73
2019-01-17T23:01:28.636Z,77925.83
2019-01-17T23:04:04.228Z,77927.83
2019-01-17T23:06:35.570Z,77903.70
2019-01-17T23:09:10.045Z,77908.73
2019-01-17T23:11:41.386Z,77929.84
2019-01-17T23:14:12.743Z,77924.81
2019-01-17T23:16:44.028Z,77921.80
2019-01-17T23:19:15.360Z,77911.75
2019-01-17T23:21:46.786Z,77906.72
2019-01-17T23:24:18.278Z,77887.61
2019-01-17T23:26:49.569Z,77912.75
2019-01-17T23:29:20.942Z,77894.66
2019-01-17T23:31:52.256Z,77912.75
2019-01-17T23:34:23.584Z,77903.70
2019-01-17T23:36:55.026Z,77925.83
2019-01-17T23:39:26.475Z,77909.73
2019-01-17T23:41:57.927Z,77923.81
2019-01-17T23:44:30.163Z,77928.84
2019-01-17T23:47:01.511Z,77941.91
2019-01-17T23:49:32.837Z,77935.88
2019-01-17T23:52:04.173Z,77929.84
2019-01-17T23:54:35.552Z,77966.05
2019-01-17T23:57:07.007Z,77975.09
2019-01-17T23:59:38.320Z,77955.98
